Tobias, Nebraska
Current Conditions -  °F | °C
As of 7:35 PM on Wednesday 22 Oct 2014 (Local Time) from KHJH Reporting Station
Heavy Rain Heavy Rain  
Wind Chill: 63°   Ceiling: 3400
Heat Index: 63°   Visibility: 4mi
Dew Point: 58°   Wind: 8mph
Humidity: 85%   Direction: 220°SW
Pressure: 30.05"   Gusts: NA
Location:  40.42°N, 97.34°W
Report Text: KHJH 230035Z AUTO 22007KT 4SM +RA SCT018 BKN034 OVC060 17/15 A3005 RMK AO2 LTG DSNT N P0009 T01710145
Loading
Personal Weather Stations






























Interactive Weather Map
Tropical Storm Tracking
New forecast layout! Learn more

10-Day Weather Forecast

Advertisements
Track Severe Weather on mobile